Time;durP1;ratioP1;P1;durP2;ratioP2;P2;SDS_P1;SDS_P2;PMS_P1;PMS_P2;Temp;Humidity;BMP_temperature;BMP_pressure;BME280_temperature;BME280_humidity;BME280_pressure;Samples;Min_cycle;Max_cycle;Signal;HPM_P1;HPM_P2
2023/07/23 00:00:51;;;;;;;5.30;3.40;;;;;;;20.46;nan;99239.38;4976925;28;20886;-77
2023/07/23 00:03:17;;;;;;;3.90;3.47;;;;;;;20.39;nan;99245.56;5056661;23;20204;-78
2023/07/23 00:05:47;;;;;;;4.40;3.53;;;;;;;20.30;nan;99240.25;4966673;28;20737;-78
2023/07/23 00:08:13;;;;;;;6.80;3.47;;;;;;;20.24;nan;99237.44;4973339;28;20219;-78
2023/07/23 00:10:39;;;;;;;4.73;4.17;;;;;;;20.20;nan;99239.63;4981983;28;20792;-78
2023/07/23 00:13:04;;;;;;;7.03;3.77;;;;;;;20.15;nan;99235.81;4980042;28;20442;-78
2023/07/23 00:15:30;;;;;;;4.50;2.97;;;;;;;20.10;nan;99237.13;4964690;28;20773;-78
2023/07/23 00:17:57;;;;;;;5.77;3.63;;;;;;;20.08;nan;99232.94;4965512;28;20276;-78
2023/07/23 00:20:22;;;;;;;3.87;2.83;;;;;;;20.05;nan;99228.78;4963652;28;20209;-78
2023/07/23 00:22:47;;;;;;;3.83;3.43;;;;;;;20.03;nan;99241.44;4964925;28;20445;-78
2023/07/23 00:25:13;;;;;;;4.37;3.90;;;;;;;20.04;nan;99234.31;4966910;28;20301;-79
2023/07/23 00:27:38;;;;;;;7.13;3.30;;;;;;;20.04;nan;99237.81;4962774;28;20574;-78
2023/07/23 00:30:05;;;;;;;4.20;3.37;;;;;;;20.02;nan;99228.31;4960745;28;20419;-78
2023/07/23 00:32:32;;;;;;;5.57;2.90;;;;;;;19.96;nan;99220.97;4939687;28;20478;-78
2023/07/23 00:34:57;;;;;;;4.43;3.37;;;;;;;19.91;nan;99228.66;4963855;28;20855;-78
2023/07/23 00:37:23;;;;;;;4.57;3.23;;;;;;;19.88;nan;99221.81;4964183;28;20275;-78
2023/07/23 00:39:48;;;;;;;3.80;3.00;;;;;;;19.86;nan;99227.28;4963430;28;20295;-78
2023/07/23 00:42:14;;;;;;;3.60;2.77;;;;;;;19.84;nan;99221.28;4961633;28;20598;-78
2023/07/23 00:44:39;;;;;;;4.93;3.60;;;;;;;19.77;nan;99228.31;4964819;28;20311;-78
2023/07/23 00:47:05;;;;;;;5.30;3.70;;;;;;;19.72;nan;99221.81;4964431;28;20213;-78
2023/07/23 00:49:31;;;;;;;5.17;3.20;;;;;;;19.66;nan;99226.81;4964100;28;20215;-79
2023/07/23 00:51:57;;;;;;;4.27;2.70;;;;;;;19.62;nan;99220.09;4965229;28;20745;-78
2023/07/23 00:54:23;;;;;;;4.30;3.67;;;;;;;19.57;nan;99225.06;4947110;28;20468;-78
2023/07/23 00:56:49;;;;;;;5.00;3.13;;;;;;;19.52;nan;99223.91;4963082;28;20459;-78
2023/07/23 00:59:16;;;;;;;5.80;3.43;;;;;;;19.43;nan;99228.38;4962246;28;20451;-78
2023/07/23 01:01:42;;;;;;;5.50;4.20;;;;;;;19.33;nan;99225.88;4962462;28;20469;-78
2023/07/23 01:04:07;;;;;;;4.33;3.10;;;;;;;19.30;nan;99218.19;4960170;28;20498;-79
2023/07/23 01:06:36;;;;;;;6.63;4.17;;;;;;;19.29;nan;99221.03;4961754;28;20623;-78
2023/07/23 01:09:05;;;;;;;4.00;3.60;;;;;;;19.28;nan;99224.69;4959252;28;20447;-78
2023/07/23 01:11:32;;;;;;;4.60;3.70;;;;;;;19.27;nan;99218.53;4957372;28;21406;-78
2023/07/23 01:14:01;;;;;;;6.40;3.77;;;;;;;19.24;nan;99221.53;4963032;28;20485;-78
2023/07/23 01:16:27;;;;;;;4.50;3.80;;;;;;;19.20;nan;99221.03;4945717;28;20955;-78
2023/07/23 01:18:54;;;;;;;4.53;3.90;;;;;;;19.18;nan;99220.34;4962487;28;20432;-77
2023/07/23 01:21:19;;;;;;;5.80;4.63;;;;;;;19.15;nan;99226.00;4962001;28;20460;-78
2023/07/23 01:23:45;;;;;;;8.40;4.50;;;;;;;19.14;nan;99223.50;4958085;28;20478;-78
2023/07/23 01:26:10;;;;;;;8.03;5.57;;;;;;;19.14;nan;99228.81;4960443;28;21007;-79
2023/07/23 01:28:36;;;;;;;7.83;5.33;;;;;;;19.10;nan;99223.00;4959110;28;20824;-78
2023/07/23 01:31:02;;;;;;;6.13;3.77;;;;;;;19.07;nan;99225.97;4961087;28;20314;-78
2023/07/23 01:33:28;;;;;;;4.83;4.43;;;;;;;19.05;nan;99219.16;4942327;28;20218;-78
2023/07/23 01:35:57;;;;;;;5.20;4.67;;;;;;;19.04;nan;99220.97;4961972;28;21061;-78
2023/07/23 01:38:23;;;;;;;4.23;3.73;;;;;;;19.03;nan;99213.97;4960039;28;20212;-78
2023/07/23 01:40:49;;;;;;;6.27;3.73;;;;;;;19.03;nan;99213.97;4960768;28;20438;-78
2023/07/23 01:43:15;;;;;;;4.40;4.00;;;;;;;18.99;nan;99217.97;4952016;28;20669;-78
2023/07/23 01:45:42;;;;;;;8.13;4.20;;;;;;;18.96;nan;99221.78;4938090;28;20637;-78
2023/07/23 01:48:08;;;;;;;4.97;3.43;;;;;;;18.97;nan;99211.97;4960222;28;20495;-78
2023/07/23 01:50:33;;;;;;;5.43;3.90;;;;;;;18.98;nan;99216.28;4958814;28;20466;-78
2023/07/23 01:52:59;;;;;;;3.67;3.37;;;;;;;19.00;nan;99208.97;4958602;28;20730;-78
2023/07/23 01:55:24;;;;;;;4.73;3.93;;;;;;;19.00;nan;99211.63;4961358;28;20221;-78
2023/07/23 01:57:50;;;;;;;5.43;4.03;;;;;;;18.96;nan;99208.47;4958794;28;20210;-78
2023/07/23 02:00:15;;;;;;;3.80;3.10;;;;;;;18.94;nan;99209.63;4960811;28;20912;-78
2023/07/23 02:02:40;;;;;;;4.73;3.67;;;;;;;18.86;nan;99213.09;4958210;28;20278;-78
2023/07/23 02:05:06;;;;;;;3.73;3.33;;;;;;;18.73;nan;99215.31;4959186;28;20227;-78
2023/07/23 02:07:32;;;;;;;9.67;4.80;;;;;;;18.60;nan;99213.09;4937238;28;20318;-78
2023/07/23 02:09:57;;;;;;;3.83;3.20;;;;;;;18.54;nan;99219.88;4959110;28;20262;-78
2023/07/23 02:12:22;;;;;;;5.43;3.70;;;;;;;18.55;nan;99210.94;4957813;28;20253;-78
2023/07/23 02:14:48;;;;;;;5.50;4.23;;;;;;;18.52;nan;99215.72;4957060;28;20225;-78
2023/07/23 02:17:13;;;;;;;4.70;4.03;;;;;;;18.47;nan;99223.34;4941330;28;20212;-78
2023/07/23 02:19:41;;;;;;;4.77;3.77;;;;;;;18.44;nan;99215.66;4958031;28;20219;-78
2023/07/23 02:22:07;;;;;;;4.90;3.67;;;;;;;18.38;nan;99221.63;4942825;28;20469;-78
2023/07/23 02:24:32;;;;;;;4.37;3.50;;;;;;;18.33;nan;99222.94;4964233;28;20223;-78
2023/07/23 02:26:58;;;;;;;3.80;3.40;;;;;;;18.30;nan;99222.41;4961695;28;20229;-78
2023/07/23 02:29:23;;;;;;;4.73;3.50;;;;;;;18.28;nan;99214.59;4962773;28;20462;-78
2023/07/23 02:31:49;;;;;;;4.13;3.70;;;;;;;18.27;nan;99228.88;4961532;28;20929;-78
2023/07/23 02:34:14;;;;;;;5.50;4.13;;;;;;;18.27;nan;99228.88;4958711;28;20710;-78
2023/07/23 02:36:40;;;;;;;4.90;3.80;;;;;;;18.24;nan;99228.34;4960974;28;20605;-78
2023/07/23 02:39:05;;;;;;;4.70;4.07;;;;;;;18.14;nan;99228.44;4960263;28;20224;-78
2023/07/23 02:41:31;;;;;;;7.60;4.10;;;;;;;18.09;nan;99234.25;4961692;28;20217;-78
2023/07/23 02:43:57;;;;;;;6.70;3.90;;;;;;;18.06;nan;99231.03;4960101;28;20236;-78
2023/07/23 02:46:23;;;;;;;4.67;3.67;;;;;;;18.02;nan;99229.69;4959732;28;20250;-79
2023/07/23 02:48:48;;;;;;;6.20;3.97;;;;;;;17.99;nan;99235.31;4954226;28;21092;-78
2023/07/23 02:51:13;;;;;;;4.30;3.47;;;;;;;17.98;nan;99238.94;4959267;28;20255;-78
2023/07/23 02:53:39;;;;;;;6.30;4.60;;;;;;;18.01;nan;99241.28;4960223;28;20230;-78
2023/07/23 02:56:05;;;;;;;4.63;4.10;;;;;;;18.03;nan;99237.50;4960607;28;20808;-79
2023/07/23 02:58:30;;;;;;;3.67;2.80;;;;;;;18.03;nan;99237.50;4954787;28;20456;-78
2023/07/23 03:00:56;;;;;;;3.83;3.03;;;;;;;18.02;nan;99245.66;4960072;28;20722;-78
2023/07/23 03:03:21;;;;;;;4.17;3.77;;;;;;;18.03;nan;99241.97;4958271;28;20340;-78
2023/07/23 03:05:47;;;;;;;5.47;3.70;;;;;;;18.03;nan;99241.97;4958972;28;20525;-77
2023/07/23 03:08:12;;;;;;;4.87;3.70;;;;;;;18.03;nan;99245.47;4956510;28;20220;-79
2023/07/23 03:10:40;;;;;;;4.27;3.50;;;;;;;18.04;nan;99243.69;4960502;28;20271;-78
2023/07/23 03:13:06;;;;;;;7.03;3.80;;;;;;;17.98;nan;99249.59;4960824;28;20232;-78
2023/07/23 03:15:31;;;;;;;5.40;3.80;;;;;;;17.91;nan;99250.19;4955201;28;20456;-78
2023/07/23 03:17:57;;;;;;;4.30;3.90;;;;;;;17.92;nan;99256.34;4954160;28;21011;-78
2023/07/23 03:20:22;;;;;;;5.40;3.43;;;;;;;17.91;nan;99250.19;4958632;28;20227;-78
2023/07/23 03:22:48;;;;;;;4.43;3.83;;;;;;;17.95;nan;99255.22;4959270;28;20683;-78
2023/07/23 03:25:16;;;;;;;3.67;3.33;;;;;;;17.98;nan;99239.78;4960147;28;20316;-78
2023/07/23 03:27:42;;;;;;;4.07;3.10;;;;;;;17.99;nan;99252.09;4940979;28;20225;-79
2023/07/23 03:30:08;;;;;;;4.03;3.60;;;;;;;18.02;nan;99249.13;4953779;28;20587;-78
2023/07/23 03:32:34;;;;;;;4.47;2.93;;;;;;;18.01;nan;99246.63;4959406;28;20498;-78
2023/07/23 03:34:59;;;;;;;3.63;3.22;;;;;;;18.00;nan;99242.31;4939840;28;21020;-78
2023/07/23 03:37:24;;;;;;;10.23;3.10;;;;;;;17.98;nan;99246.91;4960165;28;20287;-78
2023/07/23 03:39:50;;;;;;;4.13;3.30;;;;;;;17.99;nan;99238.81;4955677;28;20271;-78
2023/07/23 03:42:15;;;;;;;3.80;3.17;;;;;;;17.97;nan;99248.75;4960175;28;20398;-78
2023/07/23 03:44:41;;;;;;;3.33;3.03;;;;;;;17.94;nan;99245.59;4937835;28;20229;-78
2023/07/23 03:47:14;;;;;;;3.97;3.20;;;;;;;17.89;nan;99246.03;4955736;28;20660;-78
2023/07/23 03:49:40;;;;;;;3.77;3.30;;;;;;;17.83;nan;99252.78;4958854;28;20233;-78
2023/07/23 03:52:06;;;;;;;3.80;3.07;;;;;;;17.80;nan;99247.78;4958139;28;20581;-78
2023/07/23 03:54:32;;;;;;;3.50;3.20;;;;;;;17.81;nan;99256.59;4939918;28;20469;-78
2023/07/23 03:56:58;;;;;;;3.80;2.70;;;;;;;17.84;nan;99249.13;4958451;28;20482;-77
2023/07/23 03:59:35;;;;;;;2.87;2.67;;;;;;;17.87;nan;99254.13;4958228;28;20676;-77
2023/07/23 04:02:00;;;;;;;3.87;3.13;;;;;;;17.89;nan;99246.84;4956150;28;20228;-77
2023/07/23 04:04:26;;;;;;;5.20;3.27;;;;;;;17.91;nan;99247.53;4959513;28;20555;-77
2023/07/23 04:06:51;;;;;;;4.05;3.20;;;;;;;18.01;nan;99251.94;4957000;28;20471;-77
2023/07/23 04:09:17;;;;;;;5.67;3.27;;;;;;;18.06;nan;99253.13;4958203;28;20249;-77
2023/07/23 04:11:43;;;;;;;4.63;3.60;;;;;;;18.10;nan;99249.19;4957699;28;20232;-77
2023/07/23 04:14:08;;;;;;;4.30;3.00;;;;;;;18.15;nan;99251.41;4955442;28;20476;-77
2023/07/23 04:16:34;;;;;;;5.13;3.50;;;;;;;18.21;nan;99256.09;4956225;28;20241;-77
2023/07/23 04:18:59;;;;;;;3.83;2.80;;;;;;;18.28;nan;99257.16;4959096;28;20726;-77
2023/07/23 04:21:25;;;;;;;7.20;3.70;;;;;;;18.37;nan;99255.38;4952590;28;20234;-77
2023/07/23 04:23:52;;;;;;;4.33;3.87;;;;;;;18.43;nan;99259.22;4952140;28;20542;-77
2023/07/23 04:26:19;;;;;;;4.97;3.23;;;;;;;18.47;nan;99264.09;4957562;28;21062;-77
2023/07/23 04:28:45;;;;;;;3.27;2.97;;;;;;;18.51;nan;99264.59;4955618;28;20478;-77
2023/07/23 04:31:12;;;;;;;3.47;3.17;;;;;;;18.52;nan;99267.09;4956044;28;20565;-77
2023/07/23 04:33:37;;;;;;;8.33;3.33;;;;;;;18.57;nan;99264.78;4957349;28;20542;-77
2023/07/23 04:36:04;;;;;;;3.97;3.40;;;;;;;18.64;nan;99258.84;4957424;28;20558;-77
2023/07/23 04:38:30;;;;;;;3.37;2.97;;;;;;;18.70;nan;99267.03;4957888;28;20224;-78
2023/07/23 04:40:55;;;;;;;6.63;4.17;;;;;;;18.78;nan;99264.44;4957836;28;20479;-77
2023/07/23 04:43:20;;;;;;;3.63;2.37;;;;;;;18.86;nan;99265.47;4956588;28;20736;-77
2023/07/23 04:45:46;;;;;;;3.80;3.50;;;;;;;18.90;nan;99265.00;4959735;28;20620;-77
2023/07/23 04:48:12;;;;;;;4.30;3.30;;;;;;;18.97;nan;99262.53;4958455;28;21345;-77
2023/07/23 04:50:38;;;;;;;3.90;3.53;;;;;;;19.03;nan;99267.22;4957982;28;20231;-78
2023/07/23 04:53:03;;;;;;;4.10;3.70;;;;;;;19.13;nan;99272.41;4957861;28;20489;-77
2023/07/23 04:55:29;;;;;;;4.63;3.17;;;;;;;19.26;nan;99272.78;4959772;28;20399;-78
2023/07/23 04:57:54;;;;;;;4.07;2.73;;;;;;;19.39;nan;99261.69;4959573;28;20762;-78
2023/07/23 05:00:20;;;;;;;3.53;2.90;;;;;;;19.51;nan;99265.69;4957985;28;20224;-78
2023/07/23 05:02:45;;;;;;;4.50;3.23;;;;;;;19.65;nan;99259.72;4956967;28;20247;-77
2023/07/23 05:05:10;;;;;;;4.17;3.10;;;;;;;19.81;nan;99261.59;4958364;28;20236;-78
2023/07/23 05:07:36;;;;;;;2.60;1.93;;;;;;;19.92;nan;99260.44;4957333;28;20255;-77
2023/07/23 05:10:02;;;;;;;3.40;3.07;;;;;;;19.99;nan;99264.13;4956038;28;20214;-77
2023/07/23 05:12:28;;;;;;;4.57;3.13;;;;;;;20.02;nan;99262.97;4958728;28;20230;-77
2023/07/23 05:15:08;;;;;;;4.77;3.20;;;;;;;20.00;nan;99271.13;4957784;28;20544;-78
2023/07/23 05:17:34;;;;;;;3.73;2.80;;;;;;;20.03;nan;99270.78;4956095;28;20254;-78
2023/07/23 05:19:59;;;;;;;3.77;2.50;;;;;;;20.08;nan;99270.28;4956141;28;20510;-78
2023/07/23 05:22:25;;;;;;;2.87;2.60;;;;;;;20.14;nan;99266.94;4957729;28;20567;-78
2023/07/23 05:24:50;;;;;;;3.63;3.03;;;;;;;20.18;nan;99268.28;4957291;28;20604;-78
2023/07/23 05:27:15;;;;;;;2.70;2.30;;;;;;;20.20;nan;99268.97;4956898;28;20219;-77
2023/07/23 05:29:41;;;;;;;3.53;2.70;;;;;;;20.23;nan;99267.78;4952817;28;20875;-78
2023/07/23 05:32:07;;;;;;;2.97;2.33;;;;;;;20.27;nan;99275.28;4955211;28;20228;-77
2023/07/23 05:34:32;;;;;;;5.37;2.77;;;;;;;20.28;nan;99266.28;4955065;28;20321;-77
2023/07/23 05:36:57;;;;;;;5.43;3.50;;;;;;;20.34;nan;99270.09;4954919;28;20440;-77
2023/07/23 05:39:23;;;;;;;2.63;2.40;;;;;;;20.38;nan;99266.09;4957285;28;20208;-78
2023/07/23 05:41:48;;;;;;;4.33;3.80;;;;;;;20.43;nan;99271.75;4956421;28;20228;-78
2023/07/23 05:44:14;;;;;;;3.33;2.30;;;;;;;20.51;nan;99269.06;4956876;28;20344;-78
2023/07/23 05:46:39;;;;;;;4.77;2.87;;;;;;;20.57;nan;99272.09;4958711;28;20210;-78
2023/07/23 05:49:04;;;;;;;4.30;3.47;;;;;;;20.60;nan;99267.25;4957455;28;20211;-78
2023/07/23 05:51:31;;;;;;;4.07;2.63;;;;;;;20.65;nan;99272.06;4956269;28;20344;-77
2023/07/23 05:53:56;;;;;;;4.43;2.53;;;;;;;20.70;nan;99267.06;4929270;28;20478;-78
2023/07/23 05:56:22;;;;;;;4.07;3.23;;;;;;;20.76;nan;99269.03;4956459;28;20220;-78
2023/07/23 05:58:47;;;;;;;2.73;2.53;;;;;;;20.80;nan;99270.38;4960684;28;20215;-78
2023/07/23 06:01:13;;;;;;;3.70;2.83;;;;;;;20.76;nan;99266.38;4961200;28;20211;-78
2023/07/23 06:03:38;;;;;;;3.13;2.33;;;;;;;20.82;nan;99271.03;4975923;23;20251;-77
2023/07/23 06:06:04;;;;;;;3.37;2.73;;;;;;;20.88;nan;99262.34;4962906;28;20212;-78
2023/07/23 06:08:31;;;;;;;2.67;2.30;;;;;;;20.96;nan;99267.66;4961546;28;20262;-78
2023/07/23 06:10:57;;;;;;;2.77;2.57;;;;;;;21.04;nan;99263.28;4961748;28;20463;-77
2023/07/23 06:13:22;;;;;;;3.90;2.73;;;;;;;21.13;nan;99267.56;4962334;28;20300;-78
2023/07/23 06:15:47;;;;;;;3.27;2.30;;;;;;;21.20;nan;99268.56;4967423;28;20298;-78
2023/07/23 06:18:13;;;;;;;2.63;2.40;;;;;;;21.25;nan;99276.84;4967719;28;20282;-78
2023/07/23 06:20:38;;;;;;;5.40;2.33;;;;;;;21.31;nan;99270.84;4974626;28;20238;-78
2023/07/23 06:23:03;;;;;;;2.87;2.00;;;;;;;21.39;nan;99270.00;4971972;28;20206;-80
2023/07/23 06:25:32;;;;;;;3.47;2.60;;;;;;;21.50;nan;99264.25;4969817;28;20226;-78
2023/07/23 06:27:57;;;;;;;2.30;1.90;;;;;;;21.70;nan;99269.94;4966150;28;20215;-78
2023/07/23 06:30:23;;;;;;;3.50;2.00;;;;;;;21.91;nan;99263.13;4969345;28;20876;-78
2023/07/23 06:32:48;;;;;;;2.20;2.00;;;;;;;22.06;nan;99267.53;4969352;28;20225;-78
2023/07/23 06:35:14;;;;;;;2.90;2.00;;;;;;;22.25;nan;99266.22;4967764;28;20452;-78
2023/07/23 06:37:40;;;;;;;2.90;2.00;;;;;;;22.60;nan;99257.66;4966643;28;20213;-77
2023/07/23 06:40:06;;;;;;;2.03;1.50;;;;;;;23.27;nan;99268.28;4969864;28;20233;-78
2023/07/23 06:42:32;;;;;;;2.10;1.83;;;;;;;24.13;nan;99267.53;4964874;28;20470;-78
2023/07/23 06:44:57;;;;;;;2.50;1.80;;;;;;;25.02;nan;99264.22;4967839;28;20904;-77
2023/07/23 06:47:23;;;;;;;1.97;1.77;;;;;;;25.87;nan;99259.34;4969533;28;20301;-78
2023/07/23 06:49:48;;;;;;;2.33;1.80;;;;;;;26.55;nan;99256.50;4969552;28;20294;-77
2023/07/23 06:52:14;;;;;;;3.07;2.20;;;;;;;27.03;nan;99248.03;4969846;28;20234;-77
2023/07/23 06:54:42;;;;;;;1.90;1.73;;;;;;;27.49;nan;99244.34;4970314;28;20273;-78
2023/07/23 06:57:08;;;;;;;2.13;1.93;;;;;;;28.01;nan;99248.59;4969902;28;20211;-78
2023/07/23 06:59:34;;;;;;;1.90;1.70;;;;;;;28.43;nan;99242.63;4954652;28;20809;-78
2023/07/23 07:01:59;;;;;;;1.40;1.20;;;;;;;28.54;nan;99238.38;4967677;28;21033;-78
2023/07/23 07:04:25;;;;;;;1.77;1.57;;;;;;;28.30;nan;99238.19;4966582;28;20228;-78
2023/07/23 07:06:50;;;;;;;2.87;1.83;;;;;;;28.14;nan;99241.41;4966961;28;20436;-78
2023/07/23 07:09:16;;;;;;;1.77;1.67;;;;;;;28.37;nan;99243.50;4966836;28;20210;-77
2023/07/23 07:11:42;;;;;;;3.73;1.90;;;;;;;28.81;nan;99236.22;4967911;28;20220;-78
2023/07/23 07:14:07;;;;;;;2.55;1.80;;;;;;;29.05;nan;99246.13;4967161;28;20816;-78
2023/07/23 07:16:33;;;;;;;2.47;1.60;;;;;;;28.93;nan;99234.41;4968547;28;20299;-77
2023/07/23 07:18:58;;;;;;;3.27;1.73;;;;;;;29.07;nan;99248.63;4965637;28;20215;-78
2023/07/23 07:21:24;;;;;;;2.40;1.60;;;;;;;29.22;nan;99250.94;4965678;28;20456;-78
2023/07/23 07:23:49;;;;;;;2.30;1.87;;;;;;;29.37;nan;99243.25;4964947;28;20294;-78
2023/07/23 07:26:18;;;;;;;1.60;1.40;;;;;;;29.51;nan;99242.00;4966870;28;20224;-77
2023/07/23 07:28:43;;;;;;;1.87;1.70;;;;;;;29.68;nan;99241.41;4969145;28;20502;-77
2023/07/23 07:31:11;;;;;;;2.20;1.90;;;;;;;29.86;nan;99245.91;4966920;28;21116;-78
2023/07/23 07:33:37;;;;;;;2.17;1.73;;;;;;;30.14;nan;99240.66;4968481;28;20268;-77
2023/07/23 07:36:03;;;;;;;1.67;1.57;;;;;;;30.48;nan;99231.97;4965039;28;20477;-78
2023/07/23 07:38:31;;;;;;;3.10;1.90;;;;;;;30.54;nan;99244.56;4965747;28;20224;-77
2023/07/23 07:40:57;;;;;;;2.60;2.13;;;;;;;30.44;nan;99223.50;4965855;28;20217;-78
2023/07/23 07:43:24;;;;;;;2.27;1.70;;;;;;;30.27;nan;99233.38;4965073;28;20976;-77
2023/07/23 07:45:54;;;;;;;1.73;1.63;;;;;;;30.14;nan;99224.41;4968700;28;20461;-78
2023/07/23 07:48:20;;;;;;;2.27;1.60;;;;;;;30.02;nan;99236.28;4970081;28;20485;-77
2023/07/23 07:50:48;;;;;;;4.07;2.00;;;;;;;29.83;nan;99228.22;4967015;28;20457;-78
2023/07/23 07:53:15;;;;;;;2.90;1.70;;;;;;;29.56;nan;99231.31;4966799;28;20472;-77
2023/07/23 07:55:42;;;;;;;1.70;1.53;;;;;;;29.36;nan;99233.50;4967176;28;20563;-77
2023/07/23 07:58:12;;;;;;;2.10;1.47;;;;;;;29.24;nan;99230.72;4967630;28;20464;-78
2023/07/23 08:00:40;;;;;;;2.33;2.13;;;;;;;29.37;nan;99231.59;4966361;28;20546;-78
2023/07/23 08:03:06;;;;;;;2.43;1.60;;;;;;;29.68;nan;99236.81;4966171;28;20492;-77
2023/07/23 08:05:31;;;;;;;2.38;1.77;;;;;;;29.91;nan;99227.91;4964338;28;20506;-78
2023/07/23 08:07:59;;;;;;;2.83;1.70;;;;;;;30.06;nan;99237.47;4965746;28;20462;-78
2023/07/23 08:10:27;;;;;;;3.00;1.67;;;;;;;30.04;nan;99231.47;4967421;28;20208;-78
2023/07/23 08:12:53;;;;;;;2.07;1.60;;;;;;;30.01;nan;99232.75;4965733;28;20486;-78
2023/07/23 08:15:20;;;;;;;2.00;1.43;;;;;;;30.03;nan;99227.94;4966185;28;20475;-77
2023/07/23 08:17:46;;;;;;;2.43;1.60;;;;;;;30.06;nan;99227.47;4964227;28;20466;-77
2023/07/23 08:20:13;;;;;;;1.60;1.40;;;;;;;30.11;nan;99232.16;4967018;28;20463;-78
2023/07/23 08:22:38;;;;;;;1.63;1.53;;;;;;;30.32;nan;99231.59;4964677;28;20781;-77
2023/07/23 08:25:04;;;;;;;1.90;1.60;;;;;;;30.52;nan;99225.03;4966449;28;20557;-77
2023/07/23 08:27:30;;;;;;;1.77;1.37;;;;;;;30.49;nan;99223.59;4966307;28;20782;-78
2023/07/23 08:29:57;;;;;;;1.50;1.40;;;;;;;30.41;nan;99221.25;4967237;28;20490;-77
2023/07/23 08:32:24;;;;;;;1.70;1.40;;;;;;;30.16;nan;99227.72;4964398;28;21214;-77
2023/07/23 08:34:50;;;;;;;2.23;1.50;;;;;;;29.88;nan;99225.66;4967333;28;20508;-78
2023/07/23 08:37:15;;;;;;;1.93;1.67;;;;;;;29.74;nan;99233.16;4966362;28;20464;-77
2023/07/23 08:39:41;;;;;;;1.50;1.30;;;;;;;29.66;nan;99228.09;4965050;28;20201;-77
2023/07/23 08:42:28;;;;;;;2.13;1.57;;;;;;;29.68;nan;99233.28;4965188;28;20190;-77
2023/07/23 08:45:09;;;;;;;1.60;1.40;;;;;;;29.66;nan;99222.66;4967679;28;20876;-78
2023/07/23 08:47:38;;;;;;;2.60;1.30;;;;;;;29.73;nan;99226.13;4964202;28;20459;-78
2023/07/23 08:50:04;;;;;;;2.33;1.77;;;;;;;29.86;nan;99235.06;4966301;28;20535;-78
2023/07/23 08:52:31;;;;;;;1.60;1.40;;;;;;;29.87;nan;99226.72;4959647;28;20789;-77
2023/07/23 08:54:57;;;;;;;2.30;1.33;;;;;;;29.87;nan;99231.31;4966304;28;20232;-77
2023/07/23 08:57:22;;;;;;;2.10;1.23;;;;;;;29.93;nan;99228.50;4967178;28;20903;-77
2023/07/23 08:59:50;;;;;;;2.33;1.67;;;;;;;29.93;nan;99233.91;4966758;28;20246;-77
2023/07/23 09:02:16;;;;;;;2.07;1.40;;;;;;;29.92;nan;99229.56;4967143;28;20509;-77
2023/07/23 09:04:41;;;;;;;1.77;1.30;;;;;;;29.97;nan;99231.56;4965756;28;20673;-77
2023/07/23 09:07:10;;;;;;;1.93;1.70;;;;;;;29.97;nan;99226.97;4965548;28;20212;-78
2023/07/23 09:09:35;;;;;;;2.77;1.97;;;;;;;29.91;nan;99227.91;4965942;28;20681;-77
2023/07/23 09:12:03;;;;;;;1.77;1.27;;;;;;;29.77;nan;99226.47;4966503;28;20529;-79
2023/07/23 09:14:29;;;;;;;2.00;1.73;;;;;;;29.77;nan;99221.88;4968861;28;21051;-78
2023/07/23 09:16:54;;;;;;;3.00;1.70;;;;;;;29.87;nan;99231.31;4966981;28;20511;-79
2023/07/23 09:19:26;;;;;;;2.73;1.73;;;;;;;29.77;nan;99227.28;4969432;28;20260;-77
2023/07/23 09:21:57;;;;;;;2.93;1.70;;;;;;;29.69;nan;99224.09;4966535;28;20213;-76
2023/07/23 09:24:22;;;;;;;2.20;1.63;;;;;;;29.67;nan;99221.59;4965800;28;20467;-77
2023/07/23 09:26:48;;;;;;;1.90;1.50;;;;;;;29.63;nan;99220.41;4969174;28;21251;-79
2023/07/23 09:29:13;;;;;;;1.73;1.40;;;;;;;29.60;nan;99223.56;4966461;28;20213;-76
2023/07/23 09:31:44;;;;;;;2.53;1.87;;;;;;;29.63;nan;99209.56;4969245;28;20359;-77
2023/07/23 09:34:09;;;;;;;1.37;1.27;;;;;;;29.63;nan;99219.59;4971769;28;20306;-77
2023/07/23 09:36:36;;;;;;;2.30;2.10;;;;;;;29.65;nan;99218.31;4974234;28;20541;-77
2023/07/23 09:39:05;;;;;;;1.63;1.50;;;;;;;29.66;nan;99209.13;4973042;28;20205;-77
2023/07/23 09:41:33;;;;;;;1.57;1.30;;;;;;;29.84;nan;99205.53;4974602;28;20952;-78
2023/07/23 09:44:04;;;;;;;1.50;1.40;;;;;;;30.08;nan;99203.66;4970853;28;20493;-77
2023/07/23 09:46:30;;;;;;;1.70;1.60;;;;;;;30.29;nan;99223.94;4967978;28;20832;-77
2023/07/23 09:48:56;;;;;;;2.73;2.27;;;;;;;30.43;nan;99213.69;4970610;28;20470;-77
2023/07/23 09:51:21;;;;;;;2.33;2.13;;;;;;;30.60;nan;99202.97;4971318;28;20479;-77
2023/07/23 09:53:47;;;;;;;2.23;1.60;;;;;;;30.76;nan;99204.94;4970571;28;20306;-78
2023/07/23 09:56:15;;;;;;;2.30;1.47;;;;;;;30.88;nan;99215.78;4968921;28;20328;-78
2023/07/23 09:58:43;;;;;;;4.23;1.87;;;;;;;30.97;nan;99210.81;4956731;28;20567;-78
2023/07/23 10:01:09;;;;;;;2.87;1.70;;;;;;;31.05;nan;99230.22;4968834;28;20459;-78
2023/07/23 10:03:36;;;;;;;2.87;2.30;;;;;;;31.11;nan;99216.75;4971789;28;20491;-77
2023/07/23 10:06:03;;;;;;;1.73;1.60;;;;;;;31.16;nan;99211.44;4968875;28;20200;-78
2023/07/23 10:08:30;;;;;;;2.10;1.80;;;;;;;31.23;nan;99202.09;4967653;28;20975;-78
2023/07/23 10:10:56;;;;;;;2.10;1.90;;;;;;;31.31;nan;99200.88;4969619;28;20951;-77
2023/07/23 10:13:22;;;;;;;2.60;1.90;;;;;;;31.41;nan;99192.16;4969430;28;20586;-78
2023/07/23 10:15:50;;;;;;;2.20;1.93;;;;;;;31.46;nan;99200.34;4969505;28;20703;-78
2023/07/23 10:18:17;;;;;;;2.50;1.93;;;;;;;31.42;nan;99181.03;4970111;28;20205;-78
2023/07/23 10:20:45;;;;;;;2.33;1.70;;;;;;;31.42;nan;99202.75;4968310;28;21054;-78
2023/07/23 10:23:11;;;;;;;1.57;1.47;;;;;;;31.50;nan;99186.06;4969361;28;20474;-78
2023/07/23 10:25:36;;;;;;;2.07;1.40;;;;;;;31.46;nan;99193.06;4969364;28;20474;-78
2023/07/23 10:28:09;;;;;;;2.17;1.63;;;;;;;31.31;nan;99188.13;4970238;28;20478;-78
2023/07/23 10:30:38;;;;;;;1.97;1.70;;;;;;;31.09;nan;99196.13;4967841;28;20338;-78
2023/07/23 10:33:09;;;;;;;1.60;1.30;;;;;;;30.86;nan;99190.78;4968892;28;20963;-78
2023/07/23 10:36:00;;;;;;;2.60;1.67;;;;;;;30.60;nan;99187.53;4971101;28;20443;-78
2023/07/23 10:38:38;;;;;;;3.20;2.00;;;;;;;30.51;nan;99188.94;4967147;28;20489;-78
2023/07/23 10:41:07;;;;;;;1.93;1.50;;;;;;;30.49;nan;99179.41;4966338;28;20995;-77
2023/07/23 10:43:41;;;;;;;2.47;1.90;;;;;;;30.49;nan;99180.25;4968125;28;20987;-78
2023/07/23 10:46:09;;;;;;;2.03;1.90;;;;;;;30.63;nan;99175.38;4964924;28;20490;-79
2023/07/23 10:48:49;;;;;;;1.43;1.33;;;;;;;30.77;nan;99168.63;4968833;28;20464;-79
2023/07/23 10:51:25;;;;;;;2.10;1.30;;;;;;;30.91;nan;99166.47;4971548;28;20462;-79
2023/07/23 10:53:58;;;;;;;1.80;1.70;;;;;;;30.94;nan;99160.56;4970724;28;21067;-79
2023/07/23 10:56:28;;;;;;;1.73;1.63;;;;;;;30.97;nan;99165.50;4968864;28;20471;-79
2023/07/23 10:58:56;;;;;;;1.83;1.70;;;;;;;30.95;nan;99166.84;4970704;28;20926;-79
2023/07/23 11:01:22;;;;;;;3.23;2.77;;;;;;;30.94;nan;99166.00;4969747;28;20506;-79
2023/07/23 11:03:52;;;;;;;2.23;1.77;;;;;;;30.80;nan;99164.59;4966946;28;20460;-77
2023/07/23 11:06:32;;;;;;;2.60;1.60;;;;;;;30.61;nan;99158.53;4970017;28;20785;-80
2023/07/23 11:09:03;;;;;;;2.00;1.77;;;;;;;30.50;nan;99164.81;4974181;28;20454;-79
2023/07/23 11:11:34;;;;;;;4.70;1.60;;;;;;;30.42;nan;99158.69;4971391;28;20601;-79
2023/07/23 11:14:01;;;;;;;2.23;1.57;;;;;;;30.37;nan;99165.88;4970919;28;20517;-79
2023/07/23 11:16:27;;;;;;;2.00;1.80;;;;;;;30.31;nan;99156.81;4971737;28;20464;-79
2023/07/23 11:18:53;;;;;;;3.60;1.50;;;;;;;30.32;nan;99152.22;4974077;28;20453;-79
2023/07/23 11:21:19;;;;;;;2.93;1.90;;;;;;;30.27;nan;99141.25;4970125;28;20211;-78
2023/07/23 11:23:44;;;;;;;5.70;1.97;;;;;;;30.27;nan;99146.69;4970042;28;20475;-79
2023/07/23 11:26:10;;;;;;;2.00;1.80;;;;;;;30.19;nan;99140.53;4971727;28;20281;-79
2023/07/23 11:28:35;;;;;;;2.90;1.40;;;;;;;30.14;nan;99143.13;4973341;28;20199;-78
2023/07/23 11:31:01;;;;;;;2.47;1.87;;;;;;;30.09;nan;99136.78;4972159;28;20207;-79
2023/07/23 11:33:30;;;;;;;2.80;1.67;;;;;;;30.08;nan;99132.41;4971703;28;20553;-79
2023/07/23 11:35:56;;;;;;;4.43;2.07;;;;;;;30.16;nan;99132.91;4971623;28;20986;-78
2023/07/23 11:38:27;;;;;;;3.03;1.80;;;;;;;30.35;nan;99127.34;4972016;28;20468;-78
2023/07/23 11:40:53;;;;;;;3.03;1.70;;;;;;;30.53;nan;99135.31;4971443;28;20265;-78
2023/07/23 11:43:19;;;;;;;1.67;1.40;;;;;;;30.72;nan;99124.31;4969864;28;20478;-79
2023/07/23 11:45:45;;;;;;;1.90;1.57;;;;;;;30.83;nan;99129.72;4969562;28;20223;-79
2023/07/23 11:48:16;;;;;;;3.33;1.63;;;;;;;30.95;nan;99131.59;4966721;28;20458;-79